Dunlap, Illinois
Current Conditions -  °F | °C
As of 11:06 AM on Friday 24 Oct 2014 (Local Time) from KPIA Reporting Station
Haze Haze  
Wind Chill: 56°   Ceiling: Unl
Heat Index: 56°   Visibility: 2.5mi
Dew Point: 52°   Wind: 7mph
Humidity: 87%   Direction: 160°SSE
Pressure: 30.08"   Gusts: NA
Location:  40.86°N, 89.68°W
Report Text: KPIA 241606Z 16006KT 2 1/2SM BR FEW005 13/11 A3008 RMK AO2 T01330111
Loading
Personal Weather Stations






























Interactive Weather Map
Tropical Storm Tracking
New forecast layout! Learn more

10-Day Weather Forecast

Advertisements
Track Severe Weather on mobile